KGGW/GGW METAR and TAF weather

Enter ICAO airport designator
Station Type Date Time Source
KGGW METAR 2020/07/14 22:53 UTC NOAA

KGGW 142253Z AUTO 27019G27KT 10SM CLR 27/M01 A2993 RMK AO2 PK WND 29030/2210 SLP130 T02671011


Station Type Date Time Source
KGGW Decoded METAR 2020/07/14 22:53 UTC NOAA

GLASGOW INTERNATIONAL AIRPORT , MT, United States (KGGW) 48-13N 106-37W 693M
Jul 14, 2020 - 06:53 PM EDT / 2020.07.14 2253 UTC
Wind: from the W (270 degrees) at 22 MPH (19 KT) gusting to 31 MPH (27 KT):0
Visibility: 10 mile(s):0
Sky conditions: clear
Temperature: 80.1 F (26.7 C)
Dew Point: 30.0 F (-1.1 C)
Relative Humidity: 16%
Pressure (altimeter): 29.93 in. Hg (1013 hPa)
ob: KGGW 142253Z AUTO 27019G27KT 10SM CLR 27/M01 A2993 RMK AO2 PK WND 29030/2210 SLP130 T02671011
cycle: 23

Station Type Date Time Source
KGGW TAF 2020/07/14 18:22 UTC NOAA

TAF KGGW 141819Z 1418/1518 27014KT P6SM SKC
FM142000 27017G25KT P6SM SKC
FM142300 29017KT P6SM FEW080

Example: see airport list